sensor_id;sensor_type;location;lat;lon;timestamp;P1;durP1;ratioP1;P2;durP2;ratioP2
1000;SDS011;489;47.806;12.858;2023-04-08T00:00:18;6.47;;;5.40;;
1000;SDS011;489;47.806;12.858;2023-04-08T00:02:20;5.87;;;4.73;;
1000;SDS011;489;47.806;12.858;2023-04-08T00:04:22;8.10;;;5.00;;
1000;SDS011;489;47.806;12.858;2023-04-08T00:06:24;5.23;;;4.60;;
1000;SDS011;489;47.806;12.858;2023-04-08T00:08:27;4.40;;;4.00;;
1000;SDS011;489;47.806;12.858;2023-04-08T00:10:29;5.53;;;4.43;;
1000;SDS011;489;47.806;12.858;2023-04-08T00:12:33;7.07;;;5.90;;
1000;SDS011;489;47.806;12.858;2023-04-08T00:14:35;7.63;;;6.13;;
1000;SDS011;489;47.806;12.858;2023-04-08T00:16:37;5.70;;;4.70;;
1000;SDS011;489;47.806;12.858;2023-04-08T00:18:39;5.23;;;4.33;;
1000;SDS011;489;47.806;12.858;2023-04-08T00:20:42;5.10;;;4.60;;
1000;SDS011;489;47.806;12.858;2023-04-08T00:22:44;6.37;;;5.17;;
1000;SDS011;489;47.806;12.858;2023-04-08T00:24:46;5.87;;;5.27;;
1000;SDS011;489;47.806;12.858;2023-04-08T00:26:48;6.20;;;5.27;;
1000;SDS011;489;47.806;12.858;2023-04-08T00:28:51;6.20;;;4.97;;
1000;SDS011;489;47.806;12.858;2023-04-08T00:30:53;5.57;;;4.90;;
1000;SDS011;489;47.806;12.858;2023-04-08T00:32:55;5.87;;;4.50;;
1000;SDS011;489;47.806;12.858;2023-04-08T00:34:57;6.60;;;4.60;;
1000;SDS011;489;47.806;12.858;2023-04-08T00:37:01;6.37;;;5.60;;
1000;SDS011;489;47.806;12.858;2023-04-08T00:39:04;6.37;;;4.97;;
1000;SDS011;489;47.806;12.858;2023-04-08T00:41:06;6.60;;;5.70;;
1000;SDS011;489;47.806;12.858;2023-04-08T00:43:08;5.47;;;4.97;;
1000;SDS011;489;47.806;12.858;2023-04-08T00:45:11;6.20;;;5.60;;
1000;SDS011;489;47.806;12.858;2023-04-08T00:47:14;5.33;;;4.80;;
1000;SDS011;489;47.806;12.858;2023-04-08T00:49:16;5.20;;;4.70;;
1000;SDS011;489;47.806;12.858;2023-04-08T00:51:19;5.80;;;5.10;;
1000;SDS011;489;47.806;12.858;2023-04-08T00:53:21;7.03;;;5.27;;
1000;SDS011;489;47.806;12.858;2023-04-08T00:55:25;6.07;;;5.37;;
1000;SDS011;489;47.806;12.858;2023-04-08T00:57:27;6.33;;;5.73;;
1000;SDS011;489;47.806;12.858;2023-04-08T00:59:30;7.67;;;6.30;;
1000;SDS011;489;47.806;12.858;2023-04-08T01:01:33;6.13;;;5.47;;
1000;SDS011;489;47.806;12.858;2023-04-08T01:03:41;8.10;;;5.77;;
1000;SDS011;489;47.806;12.858;2023-04-08T01:05:59;8.07;;;6.40;;
1000;SDS011;489;47.806;12.858;2023-04-08T01:08:07;6.50;;;5.43;;
1000;SDS011;489;47.806;12.858;2023-04-08T01:10:11;7.07;;;5.93;;
1000;SDS011;489;47.806;12.858;2023-04-08T01:12:17;6.80;;;5.97;;
1000;SDS011;489;47.806;12.858;2023-04-08T01:14:22;6.57;;;5.80;;
1000;SDS011;489;47.806;12.858;2023-04-08T01:16:26;6.50;;;5.67;;
1000;SDS011;489;47.806;12.858;2023-04-08T01:18:30;6.50;;;5.70;;
1000;SDS011;489;47.806;12.858;2023-04-08T01:20:34;7.60;;;6.43;;
1000;SDS011;489;47.806;12.858;2023-04-08T01:22:40;6.10;;;5.23;;
1000;SDS011;489;47.806;12.858;2023-04-08T01:24:46;6.43;;;5.73;;
1000;SDS011;489;47.806;12.858;2023-04-08T01:26:52;7.93;;;6.13;;
1000;SDS011;489;47.806;12.858;2023-04-08T01:28:55;7.43;;;5.83;;
1000;SDS011;489;47.806;12.858;2023-04-08T01:30:59;7.00;;;6.30;;
1000;SDS011;489;47.806;12.858;2023-04-08T01:33:02;6.93;;;6.23;;
1000;SDS011;489;47.806;12.858;2023-04-08T01:35:05;7.00;;;5.83;;
1000;SDS011;489;47.806;12.858;2023-04-08T01:37:07;6.03;;;5.43;;
1000;SDS011;489;47.806;12.858;2023-04-08T01:39:10;6.53;;;5.83;;
1000;SDS011;489;47.806;12.858;2023-04-08T01:41:12;6.53;;;5.87;;
1000;SDS011;489;47.806;12.858;2023-04-08T01:43:16;6.47;;;5.63;;
1000;SDS011;489;47.806;12.858;2023-04-08T01:45:18;5.97;;;5.37;;
1000;SDS011;489;47.806;12.858;2023-04-08T01:47:20;7.10;;;5.93;;
1000;SDS011;489;47.806;12.858;2023-04-08T01:49:23;5.40;;;4.80;;
1000;SDS011;489;47.806;12.858;2023-04-08T01:51:26;7.83;;;6.47;;
1000;SDS011;489;47.806;12.858;2023-04-08T01:53:30;6.90;;;6.07;;
1000;SDS011;489;47.806;12.858;2023-04-08T01:55:33;7.77;;;6.50;;
1000;SDS011;489;47.806;12.858;2023-04-08T01:57:36;7.10;;;6.13;;
1000;SDS011;489;47.806;12.858;2023-04-08T01:59:41;7.00;;;6.20;;
1000;SDS011;489;47.806;12.858;2023-04-08T02:01:43;6.33;;;5.73;;
1000;SDS011;489;47.806;12.858;2023-04-08T02:03:45;6.47;;;5.37;;
1000;SDS011;489;47.806;12.858;2023-04-08T02:05:51;7.47;;;6.23;;
1000;SDS011;489;47.806;12.858;2023-04-08T02:07:53;7.37;;;6.17;;
1000;SDS011;489;47.806;12.858;2023-04-08T02:09:55;8.60;;;6.93;;
1000;SDS011;489;47.806;12.858;2023-04-08T02:11:57;8.20;;;6.40;;
1000;SDS011;489;47.806;12.858;2023-04-08T02:13:59;7.63;;;6.83;;
1000;SDS011;489;47.806;12.858;2023-04-08T02:16:03;8.17;;;6.80;;
1000;SDS011;489;47.806;12.858;2023-04-08T02:18:13;7.47;;;6.20;;
1000;SDS011;489;47.806;12.858;2023-04-08T02:20:17;9.50;;;6.90;;
1000;SDS011;489;47.806;12.858;2023-04-08T02:22:22;9.07;;;7.40;;
1000;SDS011;489;47.806;12.858;2023-04-08T02:24:31;8.17;;;7.20;;
1000;SDS011;489;47.806;12.858;2023-04-08T02:26:33;8.17;;;6.83;;
1000;SDS011;489;47.806;12.858;2023-04-08T02:28:36;9.57;;;7.93;;
1000;SDS011;489;47.806;12.858;2023-04-08T02:30:41;8.53;;;7.00;;
1000;SDS011;489;47.806;12.858;2023-04-08T02:32:45;7.93;;;6.40;;
1000;SDS011;489;47.806;12.858;2023-04-08T02:34:48;7.80;;;7.00;;
1000;SDS011;489;47.806;12.858;2023-04-08T02:36:50;8.70;;;7.80;;
1000;SDS011;489;47.806;12.858;2023-04-08T02:38:53;7.90;;;7.00;;
1000;SDS011;489;47.806;12.858;2023-04-08T02:40:55;7.80;;;6.43;;
1000;SDS011;489;47.806;12.858;2023-04-08T02:42:57;9.20;;;7.57;;
1000;SDS011;489;47.806;12.858;2023-04-08T02:45:00;10.57;;;7.60;;
1000;SDS011;489;47.806;12.858;2023-04-08T02:47:01;8.10;;;7.30;;
1000;SDS011;489;47.806;12.858;2023-04-08T02:49:05;8.37;;;7.20;;
1000;SDS011;489;47.806;12.858;2023-04-08T02:51:07;10.50;;;7.67;;
1000;SDS011;489;47.806;12.858;2023-04-08T02:53:09;8.47;;;7.60;;
1000;SDS011;489;47.806;12.858;2023-04-08T02:55:14;8.60;;;7.70;;
1000;SDS011;489;47.806;12.858;2023-04-08T02:57:16;8.83;;;7.93;;
1000;SDS011;489;47.806;12.858;2023-04-08T02:59:18;8.80;;;7.60;;
1000;SDS011;489;47.806;12.858;2023-04-08T03:01:20;9.47;;;7.07;;
1000;SDS011;489;47.806;12.858;2023-04-08T03:03:22;8.37;;;7.50;;
1000;SDS011;489;47.806;12.858;2023-04-08T03:05:30;11.07;;;7.17;;
1000;SDS011;489;47.806;12.858;2023-04-08T03:07:32;9.63;;;7.50;;
1000;SDS011;489;47.806;12.858;2023-04-08T03:09:34;8.50;;;7.33;;
1000;SDS011;489;47.806;12.858;2023-04-08T03:11:36;7.50;;;6.80;;
1000;SDS011;489;47.806;12.858;2023-04-08T03:13:38;8.40;;;7.53;;
1000;SDS011;489;47.806;12.858;2023-04-08T03:15:39;8.30;;;6.97;;
1000;SDS011;489;47.806;12.858;2023-04-08T03:17:42;8.70;;;7.80;;
1000;SDS011;489;47.806;12.858;2023-04-08T03:19:43;9.97;;;8.27;;
1000;SDS011;489;47.806;12.858;2023-04-08T03:21:47;8.43;;;7.60;;
1000;SDS011;489;47.806;12.858;2023-04-08T03:23:49;8.20;;;7.40;;
1000;SDS011;489;47.806;12.858;2023-04-08T03:25:50;8.33;;;7.47;;
1000;SDS011;489;47.806;12.858;2023-04-08T03:27:53;9.10;;;7.73;;
1000;SDS011;489;47.806;12.858;2023-04-08T03:29:55;8.20;;;7.30;;
1000;SDS011;489;47.806;12.858;2023-04-08T03:31:57;9.80;;;7.93;;
1000;SDS011;489;47.806;12.858;2023-04-08T03:33:59;8.03;;;7.17;;
1000;SDS011;489;47.806;12.858;2023-04-08T03:36:01;10.10;;;7.90;;
1000;SDS011;489;47.806;12.858;2023-04-08T03:38:04;8.73;;;7.63;;
1000;SDS011;489;47.806;12.858;2023-04-08T03:40:06;7.60;;;6.80;;
1000;SDS011;489;47.806;12.858;2023-04-08T03:42:10;8.30;;;7.07;;
1000;SDS011;489;47.806;12.858;2023-04-08T03:44:12;8.37;;;7.10;;
1000;SDS011;489;47.806;12.858;2023-04-08T03:46:13;8.47;;;7.53;;
1000;SDS011;489;47.806;12.858;2023-04-08T03:48:15;7.97;;;6.77;;
1000;SDS011;489;47.806;12.858;2023-04-08T03:50:17;10.10;;;7.83;;
1000;SDS011;489;47.806;12.858;2023-04-08T03:52:19;8.90;;;7.80;;
1000;SDS011;489;47.806;12.858;2023-04-08T03:54:23;8.73;;;7.07;;
1000;SDS011;489;47.806;12.858;2023-04-08T03:56:25;9.03;;;6.93;;
1000;SDS011;489;47.806;12.858;2023-04-08T03:58:27;9.80;;;7.43;;
1000;SDS011;489;47.806;12.858;2023-04-08T04:00:29;10.53;;;8.30;;
1000;SDS011;489;47.806;12.858;2023-04-08T04:02:31;8.70;;;7.27;;
1000;SDS011;489;47.806;12.858;2023-04-08T04:04:33;7.33;;;6.63;;
1000;SDS011;489;47.806;12.858;2023-04-08T04:06:37;7.90;;;6.90;;
1000;SDS011;489;47.806;12.858;2023-04-08T04:08:38;8.63;;;7.73;;
1000;SDS011;489;47.806;12.858;2023-04-08T04:10:42;8.37;;;7.57;;
1000;SDS011;489;47.806;12.858;2023-04-08T04:12:44;8.77;;;7.50;;
1000;SDS011;489;47.806;12.858;2023-04-08T04:14:47;9.20;;;7.93;;
1000;SDS011;489;47.806;12.858;2023-04-08T04:16:48;7.83;;;7.03;;
1000;SDS011;489;47.806;12.858;2023-04-08T04:18:51;9.60;;;8.70;;
1000;SDS011;489;47.806;12.858;2023-04-08T04:20:52;9.87;;;7.57;;
1000;SDS011;489;47.806;12.858;2023-04-08T04:22:54;8.43;;;7.57;;
1000;SDS011;489;47.806;12.858;2023-04-08T04:24:57;8.83;;;7.93;;
1000;SDS011;489;47.806;12.858;2023-04-08T04:27:00;8.90;;;8.00;;
1000;SDS011;489;47.806;12.858;2023-04-08T04:29:02;8.13;;;6.97;;
1000;SDS011;489;47.806;12.858;2023-04-08T04:31:05;10.53;;;8.53;;
1000;SDS011;489;47.806;12.858;2023-04-08T04:33:06;7.50;;;6.80;;
1000;SDS011;489;47.806;12.858;2023-04-08T04:35:09;8.63;;;7.70;;
1000;SDS011;489;47.806;12.858;2023-04-08T04:37:11;9.50;;;7.70;;
1000;SDS011;489;47.806;12.858;2023-04-08T04:39:13;9.37;;;7.87;;
1000;SDS011;489;47.806;12.858;2023-04-08T04:41:15;8.93;;;7.40;;
1000;SDS011;489;47.806;12.858;2023-04-08T04:43:18;8.80;;;7.60;;
1000;SDS011;489;47.806;12.858;2023-04-08T04:45:20;9.63;;;7.40;;
1000;SDS011;489;47.806;12.858;2023-04-08T04:47:23;9.67;;;8.50;;
1000;SDS011;489;47.806;12.858;2023-04-08T04:49:25;8.33;;;7.37;;
1000;SDS011;489;47.806;12.858;2023-04-08T04:51:27;9.83;;;8.40;;
1000;SDS011;489;47.806;12.858;2023-04-08T04:53:29;7.90;;;7.10;;
1000;SDS011;489;47.806;12.858;2023-04-08T04:55:31;8.80;;;7.50;;
1000;SDS011;489;47.806;12.858;2023-04-08T04:57:33;9.70;;;7.97;;
1000;SDS011;489;47.806;12.858;2023-04-08T04:59:36;8.90;;;8.00;;
1000;SDS011;489;47.806;12.858;2023-04-08T05:01:38;9.30;;;7.67;;
1000;SDS011;489;47.806;12.858;2023-04-08T05:03:40;9.03;;;8.03;;
1000;SDS011;489;47.806;12.858;2023-04-08T05:05:43;8.00;;;7.20;;
1000;SDS011;489;47.806;12.858;2023-04-08T05:07:45;8.47;;;7.00;;
1000;SDS011;489;47.806;12.858;2023-04-08T05:09:47;7.80;;;6.97;;
1000;SDS011;489;47.806;12.858;2023-04-08T05:11:48;7.20;;;6.50;;
1000;SDS011;489;47.806;12.858;2023-04-08T05:13:50;8.43;;;6.97;;
1000;SDS011;489;47.806;12.858;2023-04-08T05:15:53;8.07;;;6.50;;
1000;SDS011;489;47.806;12.858;2023-04-08T05:17:55;8.97;;;7.40;;
1000;SDS011;489;47.806;12.858;2023-04-08T05:19:57;9.27;;;7.80;;
1000;SDS011;489;47.806;12.858;2023-04-08T05:22:00;10.77;;;7.70;;
1000;SDS011;489;47.806;12.858;2023-04-08T05:24:02;9.20;;;7.43;;
1000;SDS011;489;47.806;12.858;2023-04-08T05:26:05;7.87;;;6.63;;
1000;SDS011;489;47.806;12.858;2023-04-08T05:28:07;8.23;;;7.27;;
1000;SDS011;489;47.806;12.858;2023-04-08T05:30:09;7.80;;;6.43;;
1000;SDS011;489;47.806;12.858;2023-04-08T05:32:13;8.03;;;7.10;;
1000;SDS011;489;47.806;12.858;2023-04-08T05:34:17;9.03;;;7.70;;
1000;SDS011;489;47.806;12.858;2023-04-08T05:36:22;7.20;;;6.27;;
1000;SDS011;489;47.806;12.858;2023-04-08T05:38:23;9.07;;;6.87;;
1000;SDS011;489;47.806;12.858;2023-04-08T05:40:25;8.47;;;7.00;;
1000;SDS011;489;47.806;12.858;2023-04-08T05:42:27;7.17;;;5.80;;
1000;SDS011;489;47.806;12.858;2023-04-08T05:44:29;10.60;;;5.80;;
1000;SDS011;489;47.806;12.858;2023-04-08T05:46:31;5.93;;;5.33;;
1000;SDS011;489;47.806;12.858;2023-04-08T05:48:38;6.00;;;5.07;;
1000;SDS011;489;47.806;12.858;2023-04-08T05:50:39;6.13;;;4.67;;
1000;SDS011;489;47.806;12.858;2023-04-08T05:52:42;6.57;;;5.30;;
1000;SDS011;489;47.806;12.858;2023-04-08T05:54:44;6.40;;;5.07;;
1000;SDS011;489;47.806;12.858;2023-04-08T05:56:47;5.70;;;5.10;;
1000;SDS011;489;47.806;12.858;2023-04-08T05:58:48;6.50;;;5.00;;
1000;SDS011;489;47.806;12.858;2023-04-08T06:00:50;5.87;;;5.23;;
1000;SDS011;489;47.806;12.858;2023-04-08T06:02:54;7.67;;;5.67;;
1000;SDS011;489;47.806;12.858;2023-04-08T06:04:58;7.03;;;6.10;;
1000;SDS011;489;47.806;12.858;2023-04-08T06:07:00;7.70;;;5.97;;
1000;SDS011;489;47.806;12.858;2023-04-08T06:09:03;7.70;;;6.57;;
1000;SDS011;489;47.806;12.858;2023-04-08T06:11:05;8.17;;;6.67;;
1000;SDS011;489;47.806;12.858;2023-04-08T06:13:07;7.83;;;6.70;;
1000;SDS011;489;47.806;12.858;2023-04-08T06:15:08;10.67;;;8.30;;
1000;SDS011;489;47.806;12.858;2023-04-08T06:17:11;10.00;;;7.93;;
1000;SDS011;489;47.806;12.858;2023-04-08T06:19:13;11.57;;;8.67;;
1000;SDS011;489;47.806;12.858;2023-04-08T06:21:16;11.10;;;8.13;;
1000;SDS011;489;47.806;12.858;2023-04-08T06:23:18;11.23;;;9.17;;
1000;SDS011;489;47.806;12.858;2023-04-08T06:25:20;11.77;;;8.83;;
1000;SDS011;489;47.806;12.858;2023-04-08T06:27:22;10.17;;;8.40;;
1000;SDS011;489;47.806;12.858;2023-04-08T06:29:24;11.13;;;8.57;;
1000;SDS011;489;47.806;12.858;2023-04-08T06:31:29;12.80;;;8.80;;
1000;SDS011;489;47.806;12.858;2023-04-08T06:33:31;9.67;;;8.10;;
1000;SDS011;489;47.806;12.858;2023-04-08T06:35:34;11.63;;;9.10;;
1000;SDS011;489;47.806;12.858;2023-04-08T06:37:38;12.17;;;9.60;;
1000;SDS011;489;47.806;12.858;2023-04-08T06:39:39;10.67;;;8.93;;
1000;SDS011;489;47.806;12.858;2023-04-08T06:41:41;11.20;;;9.27;;
1000;SDS011;489;47.806;12.858;2023-04-08T06:43:59;10.13;;;8.27;;
1000;SDS011;489;47.806;12.858;2023-04-08T06:46:01;11.67;;;9.00;;
1000;SDS011;489;47.806;12.858;2023-04-08T06:48:04;11.30;;;8.60;;
1000;SDS011;489;47.806;12.858;2023-04-08T06:50:08;12.80;;;9.70;;
1000;SDS011;489;47.806;12.858;2023-04-08T06:52:10;11.00;;;9.03;;
1000;SDS011;489;47.806;12.858;2023-04-08T06:54:14;13.33;;;9.83;;
1000;SDS011;489;47.806;12.858;2023-04-08T06:56:15;14.53;;;10.20;;
1000;SDS011;489;47.806;12.858;2023-04-08T06:58:17;12.10;;;9.80;;
1000;SDS011;489;47.806;12.858;2023-04-08T07:00:21;11.77;;;9.03;;
1000;SDS011;489;47.806;12.858;2023-04-08T07:02:23;12.33;;;9.47;;
1000;SDS011;489;47.806;12.858;2023-04-08T07:04:24;11.60;;;9.23;;
1000;SDS011;489;47.806;12.858;2023-04-08T07:06:27;11.60;;;8.63;;
1000;SDS011;489;47.806;12.858;2023-04-08T07:08:28;14.43;;;10.03;;
1000;SDS011;489;47.806;12.858;2023-04-08T07:10:33;10.70;;;8.97;;
1000;SDS011;489;47.806;12.858;2023-04-08T07:12:35;10.77;;;9.43;;
1000;SDS011;489;47.806;12.858;2023-04-08T07:14:37;10.53;;;9.00;;
1000;SDS011;489;47.806;12.858;2023-04-08T07:16:39;12.33;;;9.50;;
1000;SDS011;489;47.806;12.858;2023-04-08T07:18:42;10.03;;;8.40;;
1000;SDS011;489;47.806;12.858;2023-04-08T07:20:44;11.40;;;9.13;;
1000;SDS011;489;47.806;12.858;2023-04-08T07:22:53;10.60;;;8.53;;
1000;SDS011;489;47.806;12.858;2023-04-08T07:24:55;10.00;;;8.23;;
1000;SDS011;489;47.806;12.858;2023-04-08T07:26:58;10.23;;;8.47;;
1000;SDS011;489;47.806;12.858;2023-04-08T07:29:00;11.30;;;8.80;;
1000;SDS011;489;47.806;12.858;2023-04-08T07:33:21;11.13;;;8.43;;
1000;SDS011;489;47.806;12.858;2023-04-08T07:35:24;10.97;;;9.83;;
1000;SDS011;489;47.806;12.858;2023-04-08T07:37:26;12.13;;;9.17;;
1000;SDS011;489;47.806;12.858;2023-04-08T07:39:28;15.70;;;10.87;;
1000;SDS011;489;47.806;12.858;2023-04-08T07:41:30;12.60;;;10.90;;
1000;SDS011;489;47.806;12.858;2023-04-08T07:43:33;12.30;;;10.20;;
1000;SDS011;489;47.806;12.858;2023-04-08T07:45:36;13.20;;;10.47;;
1000;SDS011;489;47.806;12.858;2023-04-08T07:47:38;12.40;;;9.80;;
1000;SDS011;489;47.806;12.858;2023-04-08T07:49:40;13.20;;;9.30;;
1000;SDS011;489;47.806;12.858;2023-04-08T07:51:41;12.63;;;9.23;;
1000;SDS011;489;47.806;12.858;2023-04-08T07:53:43;13.20;;;10.70;;
1000;SDS011;489;47.806;12.858;2023-04-08T07:55:45;14.57;;;11.00;;
1000;SDS011;489;47.806;12.858;2023-04-08T07:57:47;12.83;;;10.50;;
1000;SDS011;489;47.806;12.858;2023-04-08T07:59:51;12.60;;;9.77;;
1000;SDS011;489;47.806;12.858;2023-04-08T08:01:53;12.00;;;9.90;;
1000;SDS011;489;47.806;12.858;2023-04-08T08:03:55;15.30;;;9.77;;
1000;SDS011;489;47.806;12.858;2023-04-08T08:06:19;12.37;;;10.40;;
1000;SDS011;489;47.806;12.858;2023-04-08T08:08:21;13.53;;;10.57;;
1000;SDS011;489;47.806;12.858;2023-04-08T08:10:23;13.23;;;10.03;;
1000;SDS011;489;47.806;12.858;2023-04-08T08:12:25;15.17;;;10.03;;
1000;SDS011;489;47.806;12.858;2023-04-08T08:14:27;12.87;;;10.80;;
1000;SDS011;489;47.806;12.858;2023-04-08T08:16:31;14.00;;;10.10;;
1000;SDS011;489;47.806;12.858;2023-04-08T08:18:33;13.33;;;11.10;;
1000;SDS011;489;47.806;12.858;2023-04-08T08:20:35;11.57;;;10.23;;
1000;SDS011;489;47.806;12.858;2023-04-08T08:22:37;11.87;;;10.40;;
1000;SDS011;489;47.806;12.858;2023-04-08T08:24:40;13.90;;;9.87;;
1000;SDS011;489;47.806;12.858;2023-04-08T08:26:42;11.00;;;9.30;;
1000;SDS011;489;47.806;12.858;2023-04-08T08:28:46;12.00;;;9.40;;
1000;SDS011;489;47.806;12.858;2023-04-08T08:30:48;12.10;;;10.10;;
1000;SDS011;489;47.806;12.858;2023-04-08T08:32:51;12.80;;;9.80;;
1000;SDS011;489;47.806;12.858;2023-04-08T08:34:53;13.57;;;11.37;;
1000;SDS011;489;47.806;12.858;2023-04-08T08:36:55;13.23;;;10.00;;
1000;SDS011;489;47.806;12.858;2023-04-08T08:38:57;12.37;;;9.77;;
1000;SDS011;489;47.806;12.858;2023-04-08T08:41:00;14.33;;;10.30;;
1000;SDS011;489;47.806;12.858;2023-04-08T08:43:03;12.83;;;10.10;;
1000;SDS011;489;47.806;12.858;2023-04-08T08:45:05;11.40;;;9.50;;
1000;SDS011;489;47.806;12.858;2023-04-08T08:47:08;13.33;;;10.20;;
1000;SDS011;489;47.806;12.858;2023-04-08T08:49:11;12.10;;;10.10;;
1000;SDS011;489;47.806;12.858;2023-04-08T08:51:15;12.03;;;10.50;;
1000;SDS011;489;47.806;12.858;2023-04-08T08:53:17;13.40;;;10.40;;
1000;SDS011;489;47.806;12.858;2023-04-08T08:55:20;11.57;;;10.23;;
1000;SDS011;489;47.806;12.858;2023-04-08T08:57:22;13.20;;;9.80;;
1000;SDS011;489;47.806;12.858;2023-04-08T08:59:24;11.80;;;9.40;;
1000;SDS011;489;47.806;12.858;2023-04-08T09:01:32;11.80;;;10.50;;
1000;SDS011;489;47.806;12.858;2023-04-08T09:03:36;11.43;;;9.53;;
1000;SDS011;489;47.806;12.858;2023-04-08T09:05:44;12.50;;;10.80;;
1000;SDS011;489;47.806;12.858;2023-04-08T09:08:06;11.87;;;10.20;;
1000;SDS011;489;47.806;12.858;2023-04-08T09:10:25;11.13;;;8.80;;
1000;SDS011;489;47.806;12.858;2023-04-08T09:12:29;13.40;;;10.23;;
1000;SDS011;489;47.806;12.858;2023-04-08T09:14:31;10.90;;;9.40;;
1000;SDS011;489;47.806;12.858;2023-04-08T09:16:33;10.80;;;9.30;;
1000;SDS011;489;47.806;12.858;2023-04-08T09:18:35;12.47;;;9.50;;
1000;SDS011;489;47.806;12.858;2023-04-08T09:20:37;11.47;;;8.77;;
1000;SDS011;489;47.806;12.858;2023-04-08T09:22:54;10.47;;;8.67;;
1000;SDS011;489;47.806;12.858;2023-04-08T09:25:21;11.13;;;9.30;;
1000;SDS011;489;47.806;12.858;2023-04-08T09:27:32;12.20;;;9.77;;
1000;SDS011;489;47.806;12.858;2023-04-08T09:29:35;10.40;;;8.87;;
1000;SDS011;489;47.806;12.858;2023-04-08T09:31:37;10.30;;;9.03;;
1000;SDS011;489;47.806;12.858;2023-04-08T09:33:40;10.63;;;9.53;;
1000;SDS011;489;47.806;12.858;2023-04-08T09:35:43;9.57;;;8.53;;
1000;SDS011;489;47.806;12.858;2023-04-08T09:37:47;10.07;;;8.90;;
1000;SDS011;489;47.806;12.858;2023-04-08T09:40:08;9.50;;;8.50;;
1000;SDS011;489;47.806;12.858;2023-04-08T09:42:11;9.70;;;8.70;;
1000;SDS011;489;47.806;12.858;2023-04-08T09:44:13;10.70;;;9.07;;
1000;SDS011;489;47.806;12.858;2023-04-08T09:46:17;10.23;;;8.70;;
1000;SDS011;489;47.806;12.858;2023-04-08T09:48:26;10.07;;;8.80;;
1000;SDS011;489;47.806;12.858;2023-04-08T09:50:30;10.23;;;8.60;;
1000;SDS011;489;47.806;12.858;2023-04-08T09:52:52;11.17;;;9.10;;
1000;SDS011;489;47.806;12.858;2023-04-08T09:54:59;9.77;;;8.77;;
1000;SDS011;489;47.806;12.858;2023-04-08T09:57:04;10.70;;;9.10;;
1000;SDS011;489;47.806;12.858;2023-04-08T09:59:11;11.50;;;10.30;;
1000;SDS011;489;47.806;12.858;2023-04-08T10:01:16;10.17;;;8.73;;
1000;SDS011;489;47.806;12.858;2023-04-08T10:03:25;9.07;;;8.17;;
1000;SDS011;489;47.806;12.858;2023-04-08T10:05:28;10.20;;;8.80;;
1000;SDS011;489;47.806;12.858;2023-04-08T10:07:31;9.57;;;8.07;;
1000;SDS011;489;47.806;12.858;2023-04-08T10:09:35;23.93;;;20.37;;
1000;SDS011;489;47.806;12.858;2023-04-08T10:11:40;9.70;;;8.73;;
1000;SDS011;489;47.806;12.858;2023-04-08T10:13:42;10.00;;;9.00;;
1000;SDS011;489;47.806;12.858;2023-04-08T10:15:45;8.60;;;7.70;;
1000;SDS011;489;47.806;12.858;2023-04-08T10:17:50;10.30;;;8.57;;
1000;SDS011;489;47.806;12.858;2023-04-08T10:19:52;9.37;;;8.47;;
1000;SDS011;489;47.806;12.858;2023-04-08T10:21:54;9.33;;;8.27;;
1000;SDS011;489;47.806;12.858;2023-04-08T10:23:57;9.60;;;8.60;;
1000;SDS011;489;47.806;12.858;2023-04-08T10:26:02;9.70;;;8.70;;
1000;SDS011;489;47.806;12.858;2023-04-08T10:28:38;9.07;;;8.10;;
1000;SDS011;489;47.806;12.858;2023-04-08T10:30:41;9.53;;;8.27;;
1000;SDS011;489;47.806;12.858;2023-04-08T10:32:43;8.27;;;7.37;;
1000;SDS011;489;47.806;12.858;2023-04-08T10:34:50;9.30;;;7.57;;
1000;SDS011;489;47.806;12.858;2023-04-08T10:36:54;8.37;;;7.57;;
1000;SDS011;489;47.806;12.858;2023-04-08T10:38:58;9.47;;;7.93;;
1000;SDS011;489;47.806;12.858;2023-04-08T10:41:01;9.53;;;8.20;;
1000;SDS011;489;47.806;12.858;2023-04-08T10:43:03;9.03;;;8.10;;
1000;SDS011;489;47.806;12.858;2023-04-08T10:45:06;10.00;;;8.60;;
1000;SDS011;489;47.806;12.858;2023-04-08T10:47:08;9.53;;;8.50;;
1000;SDS011;489;47.806;12.858;2023-04-08T10:49:10;9.40;;;8.40;;
1000;SDS011;489;47.806;12.858;2023-04-08T10:51:12;9.20;;;7.80;;
1000;SDS011;489;47.806;12.858;2023-04-08T10:53:14;19.80;;;15.23;;
1000;SDS011;489;47.806;12.858;2023-04-08T10:55:20;10.93;;;8.40;;
1000;SDS011;489;47.806;12.858;2023-04-08T10:57:24;10.90;;;8.90;;
1000;SDS011;489;47.806;12.858;2023-04-08T10:59:29;9.10;;;7.67;;
1000;SDS011;489;47.806;12.858;2023-04-08T11:01:38;8.10;;;7.10;;
1000;SDS011;489;47.806;12.858;2023-04-08T11:03:41;7.97;;;6.40;;
1000;SDS011;489;47.806;12.858;2023-04-08T11:05:43;6.10;;;5.57;;
1000;SDS011;489;47.806;12.858;2023-04-08T11:07:45;6.53;;;5.93;;
1000;SDS011;489;47.806;12.858;2023-04-08T11:09:47;6.70;;;6.00;;
1000;SDS011;489;47.806;12.858;2023-04-08T11:11:50;7.80;;;6.43;;
1000;SDS011;489;47.806;12.858;2023-04-08T11:13:54;6.63;;;6.03;;
1000;SDS011;489;47.806;12.858;2023-04-08T11:15:57;8.77;;;6.60;;
1000;SDS011;489;47.806;12.858;2023-04-08T11:17:59;8.17;;;7.37;;
1000;SDS011;489;47.806;12.858;2023-04-08T11:20:01;8.63;;;6.93;;
1000;SDS011;489;47.806;12.858;2023-04-08T11:22:05;8.40;;;7.60;;
1000;SDS011;489;47.806;12.858;2023-04-08T11:24:09;7.83;;;6.70;;
1000;SDS011;489;47.806;12.858;2023-04-08T11:26:13;8.10;;;7.07;;
1000;SDS011;489;47.806;12.858;2023-04-08T11:28:16;8.10;;;7.30;;
1000;SDS011;489;47.806;12.858;2023-04-08T11:30:19;7.43;;;6.63;;
1000;SDS011;489;47.806;12.858;2023-04-08T11:32:22;8.40;;;7.30;;
1000;SDS011;489;47.806;12.858;2023-04-08T11:34:24;8.40;;;7.60;;
1000;SDS011;489;47.806;12.858;2023-04-08T11:36:27;8.67;;;7.87;;
1000;SDS011;489;47.806;12.858;2023-04-08T11:38:29;7.77;;;7.00;;
1000;SDS011;489;47.806;12.858;2023-04-08T11:40:32;9.47;;;7.50;;
1000;SDS011;489;47.806;12.858;2023-04-08T11:42:34;8.97;;;7.80;;
1000;SDS011;489;47.806;12.858;2023-04-08T11:44:36;10.30;;;8.40;;
1000;SDS011;489;47.806;12.858;2023-04-08T11:46:39;8.23;;;7.30;;
1000;SDS011;489;47.806;12.858;2023-04-08T11:48:45;9.20;;;7.53;;
1000;SDS011;489;47.806;12.858;2023-04-08T11:51:01;9.20;;;7.20;;
1000;SDS011;489;47.806;12.858;2023-04-08T11:53:03;8.67;;;7.30;;
1000;SDS011;489;47.806;12.858;2023-04-08T11:55:06;9.00;;;7.70;;
1000;SDS011;489;47.806;12.858;2023-04-08T11:57:08;8.83;;;7.70;;
1000;SDS011;489;47.806;12.858;2023-04-08T11:59:10;8.33;;;7.10;;
1000;SDS011;489;47.806;12.858;2023-04-08T12:01:12;8.43;;;7.13;;
1000;SDS011;489;47.806;12.858;2023-04-08T12:03:15;8.53;;;7.63;;
1000;SDS011;489;47.806;12.858;2023-04-08T12:05:17;8.53;;;7.73;;
1000;SDS011;489;47.806;12.858;2023-04-08T12:07:20;12.37;;;7.77;;
1000;SDS011;489;47.806;12.858;2023-04-08T12:09:22;7.93;;;7.10;;
1000;SDS011;489;47.806;12.858;2023-04-08T12:11:23;9.10;;;7.23;;
1000;SDS011;489;47.806;12.858;2023-04-08T12:13:26;7.90;;;7.10;;
1000;SDS011;489;47.806;12.858;2023-04-08T12:15:28;7.63;;;6.83;;
1000;SDS011;489;47.806;12.858;2023-04-08T12:17:30;6.87;;;6.03;;
1000;SDS011;489;47.806;12.858;2023-04-08T12:19:33;7.63;;;6.83;;
1000;SDS011;489;47.806;12.858;2023-04-08T12:21:35;8.00;;;7.20;;
1000;SDS011;489;47.806;12.858;2023-04-08T12:23:37;7.70;;;6.97;;
1000;SDS011;489;47.806;12.858;2023-04-08T12:25:39;6.83;;;6.10;;
1000;SDS011;489;47.806;12.858;2023-04-08T12:27:41;7.13;;;6.43;;
1000;SDS011;489;47.806;12.858;2023-04-08T12:29:43;7.60;;;6.80;;
1000;SDS011;489;47.806;12.858;2023-04-08T12:31:45;7.40;;;6.70;;
1000;SDS011;489;47.806;12.858;2023-04-08T12:33:47;8.00;;;7.20;;
1000;SDS011;489;47.806;12.858;2023-04-08T12:35:50;6.67;;;5.97;;
1000;SDS011;489;47.806;12.858;2023-04-08T12:37:53;6.70;;;6.10;;
1000;SDS011;489;47.806;12.858;2023-04-08T12:39:55;8.20;;;6.63;;
1000;SDS011;489;47.806;12.858;2023-04-08T12:42:19;7.47;;;6.77;;
1000;SDS011;489;47.806;12.858;2023-04-08T12:44:21;8.10;;;7.30;;